Time;durP1;ratioP1;P1;durP2;ratioP2;P2;SDS_P1;SDS_P2;PMS_P1;PMS_P2;Temp;Humidity;BMP_temperature;BMP_pressure;BME280_temperature;BME280_humidity;BME280_pressure;Samples;Min_cycle;Max_cycle;Signal;HPM_P1;HPM_P2
2023/12/23 00:01:19;;;;;;;132.10;57.80;;;17.70;70.90;;;;;;5067952;28;20040;-40
2023/12/23 00:03:45;;;;;;;132.75;57.72;;;17.70;71.00;;;;;;5064279;28;20447;-43
2023/12/23 00:06:10;;;;;;;132.70;57.88;;;17.70;70.50;;;;;;5061020;28;20589;-45
2023/12/23 00:08:36;;;;;;;131.10;57.78;;;17.60;70.70;;;;;;5060063;28;20537;-44
2023/12/23 00:11:02;;;;;;;132.43;58.53;;;17.60;71.10;;;;;;5060849;28;20891;-40
2023/12/23 00:13:27;;;;;;;131.73;57.78;;;17.60;71.00;;;;;;5061421;28;20040;-43
2023/12/23 00:15:53;;;;;;;133.50;57.33;;;17.60;70.70;;;;;;5060457;28;20736;-39
2023/12/23 00:18:19;;;;;;;129.98;57.35;;;17.60;70.60;;;;;;5059844;28;20039;-40
2023/12/23 00:20:44;;;;;;;132.82;57.53;;;17.50;70.80;;;;;;5060086;28;20041;-40
2023/12/23 00:23:12;;;;;;;131.13;57.63;;;17.50;70.40;;;;;;5057857;28;20161;-42
2023/12/23 00:25:38;;;;;;;129.05;57.10;;;17.50;70.50;;;;;;5060194;28;20076;-42
2023/12/23 00:28:04;;;;;;;129.65;57.28;;;17.50;71.10;;;;;;5058699;28;20088;-41
2023/12/23 00:30:29;;;;;;;130.35;57.33;;;17.50;70.80;;;;;;5057486;28;20047;-41
2023/12/23 00:32:55;;;;;;;130.70;57.40;;;17.50;71.00;;;;;;5056612;28;20080;-41
2023/12/23 00:35:21;;;;;;;129.75;57.25;;;17.40;71.20;;;;;;5061812;28;20033;-42
2023/12/23 00:37:46;;;;;;;129.52;57.13;;;17.50;71.00;;;;;;5058580;28;20128;-41
2023/12/23 00:40:12;;;;;;;130.43;57.53;;;17.50;70.60;;;;;;5057706;28;20156;-40
2023/12/23 00:42:38;;;;;;;131.13;57.58;;;17.40;70.10;;;;;;5058719;28;20154;-40
2023/12/23 00:45:05;;;;;;;129.23;57.55;;;17.40;70.60;;;;;;5058096;28;20052;-40
2023/12/23 00:47:31;;;;;;;128.90;57.10;;;17.40;70.70;;;;;;5060181;28;20655;-43
2023/12/23 00:49:56;;;;;;;130.07;57.63;;;17.40;70.70;;;;;;5055357;28;20203;-42
2023/12/23 00:52:22;;;;;;;128.90;56.92;;;17.40;70.60;;;;;;5058538;28;20531;-40
2023/12/23 00:54:48;;;;;;;132.90;57.60;;;17.40;70.50;;;;;;5055737;28;20926;-41
2023/12/23 00:57:14;;;;;;;128.90;56.95;;;17.40;70.60;;;;;;5061862;28;20037;-41
2023/12/23 00:59:40;;;;;;;128.75;56.92;;;17.40;70.90;;;;;;5054928;28;20044;-41
2023/12/23 01:02:06;;;;;;;130.07;57.65;;;17.40;71.10;;;;;;5059054;28;20037;-42
2023/12/23 01:04:31;;;;;;;129.05;57.00;;;17.40;70.80;;;;;;5059746;28;20537;-43
2023/12/23 01:06:57;;;;;;;131.88;57.45;;;17.40;70.70;;;;;;5060654;28;20104;-42
2023/12/23 01:09:22;;;;;;;129.25;57.22;;;17.30;70.70;;;;;;5060643;28;20100;-42
2023/12/23 01:11:48;;;;;;;128.65;57.10;;;17.30;70.90;;;;;;5060115;28;20030;-41
2023/12/23 01:14:14;;;;;;;129.75;56.97;;;17.30;70.90;;;;;;5057288;28;20080;-42
2023/12/23 01:16:39;;;;;;;132.10;57.22;;;17.30;70.80;;;;;;5061728;28;20042;-43
2023/12/23 01:19:05;;;;;;;129.32;57.45;;;17.30;71.00;;;;;;5061308;28;20044;-41
2023/12/23 01:21:31;;;;;;;127.82;56.85;;;17.30;70.80;;;;;;5059407;28;20667;-42
2023/12/23 01:23:56;;;;;;;133.65;57.38;;;17.30;70.80;;;;;;5056266;28;20472;-39
2023/12/23 01:26:22;;;;;;;128.77;56.65;;;17.30;71.00;;;;;;5058543;28;20096;-42
2023/12/23 01:28:48;;;;;;;129.40;57.50;;;17.20;71.00;;;;;;5059795;28;20899;-42
2023/12/23 01:31:13;;;;;;;127.70;56.90;;;17.30;71.60;;;;;;5051993;28;20040;-41
2023/12/23 01:33:39;;;;;;;129.05;56.63;;;17.20;70.70;;;;;;5054099;28;20053;-42
2023/12/23 01:36:05;;;;;;;129.40;57.20;;;17.20;70.70;;;;;;5056205;28;20419;-41
2023/12/23 01:38:33;;;;;;;130.88;56.75;;;17.10;70.60;;;;;;5059552;28;20037;-41
2023/12/23 01:40:59;;;;;;;127.82;56.80;;;17.20;71.00;;;;;;5057368;28;20327;-41
2023/12/23 01:43:24;;;;;;;131.30;56.65;;;17.20;71.00;;;;;;5061401;28;21043;-40
2023/12/23 01:45:55;;;;;;;127.60;57.13;;;17.20;70.90;;;;;;5055977;28;20076;-40
2023/12/23 01:48:22;;;;;;;130.35;57.15;;;17.10;70.60;;;;;;5054999;28;20037;-42
2023/12/23 01:50:49;;;;;;;128.90;56.70;;;17.20;71.00;;;;;;5057677;28;20574;-39
2023/12/23 01:53:15;;;;;;;128.38;56.78;;;17.10;70.60;;;;;;5054849;28;20037;-41
2023/12/23 01:55:41;;;;;;;127.57;56.83;;;17.10;70.90;;;;;;5055379;28;20074;-42
2023/12/23 01:58:07;;;;;;;129.23;56.97;;;17.10;70.80;;;;;;5055468;28;20119;-40
2023/12/23 02:00:32;;;;;;;127.75;56.92;;;17.10;70.90;;;;;;5056323;28;20116;-41
2023/12/23 02:02:59;;;;;;;128.30;57.20;;;17.10;70.90;;;;;;5057534;28;20110;-42
2023/12/23 02:05:25;;;;;;;128.02;56.72;;;17.10;70.90;;;;;;5053305;28;20128;-40
2023/12/23 02:07:52;;;;;;;129.10;56.83;;;17.10;70.80;;;;;;5056382;28;20114;-45
2023/12/23 02:10:18;;;;;;;127.40;57.13;;;17.10;70.90;;;;;;5057068;28;20040;-39
2023/12/23 02:12:56;;;;;;;128.70;57.08;;;17.10;70.60;;;;;;5057465;28;20029;-40
2023/12/23 02:15:23;;;;;;;127.13;56.63;;;17.00;71.00;;;;;;5054280;28;20045;-42
2023/12/23 02:18:00;;;;;;;127.53;56.28;;;17.00;70.90;;;;;;5052852;28;20107;-41
2023/12/23 02:20:27;;;;;;;127.68;56.53;;;17.10;70.80;;;;;;5054346;28;21663;-42
2023/12/23 02:22:53;;;;;;;128.38;56.47;;;17.10;71.10;;;;;;5057869;28;20029;-44
2023/12/23 02:25:20;;;;;;;128.43;56.63;;;17.00;70.80;;;;;;5058627;28;20049;-41
2023/12/23 02:27:52;;;;;;;127.68;56.47;;;17.00;70.80;;;;;;5059260;28;20029;-41
2023/12/23 02:30:19;;;;;;;128.50;56.50;;;17.00;70.80;;;;;;5049324;28;20034;-41
2023/12/23 02:32:45;;;;;;;129.45;56.47;;;17.00;70.90;;;;;;5053862;28;20091;-46
2023/12/23 02:35:12;;;;;;;129.73;57.00;;;17.00;70.90;;;;;;5055319;28;20045;-44
2023/12/23 02:37:38;;;;;;;128.90;57.25;;;17.00;70.70;;;;;;5057888;28;20046;-41
2023/12/23 02:40:06;;;;;;;131.65;57.15;;;17.00;71.20;;;;;;5054870;28;20033;-40
2023/12/23 02:42:31;;;;;;;127.72;56.60;;;17.00;70.90;;;;;;5055509;28;20060;-40
2023/12/23 02:44:57;;;;;;;131.90;58.50;;;17.00;71.10;;;;;;5053740;28;20049;-40
2023/12/23 02:47:23;;;;;;;129.50;57.00;;;17.00;70.90;;;;;;5059650;28;20156;-43
2023/12/23 02:49:48;;;;;;;129.48;56.58;;;16.90;70.70;;;;;;5053188;28;20043;-42
2023/12/23 02:52:14;;;;;;;128.52;56.80;;;16.90;70.70;;;;;;5060754;28;20063;-40
2023/12/23 02:54:39;;;;;;;128.82;56.85;;;16.90;70.80;;;;;;5054986;28;20474;-40
2023/12/23 02:57:05;;;;;;;127.20;56.55;;;16.90;70.70;;;;;;5058645;28;20745;-39
2023/12/23 02:59:31;;;;;;;127.68;56.75;;;16.90;70.80;;;;;;5053125;28;20056;-39
2023/12/23 03:01:56;;;;;;;129.02;56.72;;;16.90;70.90;;;;;;5061280;28;20033;-44
2023/12/23 03:04:22;;;;;;;128.27;56.90;;;16.90;71.00;;;;;;5059221;28;20552;-40
2023/12/23 03:06:47;;;;;;;126.75;56.50;;;16.90;70.80;;;;;;5060683;28;20047;-43
2023/12/23 03:09:13;;;;;;;129.07;56.88;;;16.90;70.70;;;;;;5061837;28;20025;-45
2023/12/23 03:11:39;;;;;;;129.88;56.85;;;16.90;70.80;;;;;;5058711;28;20062;-45
2023/12/23 03:14:05;;;;;;;127.47;56.20;;;16.80;70.60;;;;;;5062579;28;20037;-40
2023/12/23 03:16:34;;;;;;;127.00;56.88;;;16.80;70.90;;;;;;5060955;28;20049;-42
2023/12/23 03:19:03;;;;;;;128.38;56.70;;;16.80;70.80;;;;;;5060802;28;20033;-39
2023/12/23 03:21:32;;;;;;;127.82;56.65;;;16.90;70.60;;;;;;5056730;28;20491;-39
2023/12/23 03:23:57;;;;;;;127.03;56.97;;;16.80;70.70;;;;;;5059447;28;20041;-43
2023/12/23 03:26:23;;;;;;;128.35;56.63;;;16.90;70.70;;;;;;5061603;28;20036;-40
2023/12/23 03:28:49;;;;;;;128.77;56.60;;;16.80;70.50;;;;;;5060791;28;20036;-40
2023/12/23 03:31:15;;;;;;;127.75;56.85;;;16.80;70.60;;;;;;5059661;28;20045;-41
2023/12/23 03:33:40;;;;;;;130.25;56.55;;;16.80;71.50;;;;;;5056674;28;20217;-40
2023/12/23 03:36:06;;;;;;;127.72;56.53;;;16.80;70.90;;;;;;5060804;28;20041;-45
2023/12/23 03:38:32;;;;;;;128.80;57.22;;;16.80;70.80;;;;;;5060366;28;20037;-41
2023/12/23 03:40:58;;;;;;;127.55;57.08;;;16.80;70.80;;;;;;5058409;28;20087;-41
2023/12/23 03:43:23;;;;;;;128.20;56.90;;;16.80;70.80;;;;;;5060386;28;20099;-40
2023/12/23 03:45:49;;;;;;;129.90;56.55;;;16.80;70.60;;;;;;5059182;28;20056;-40
2023/12/23 03:48:15;;;;;;;128.32;56.63;;;16.80;70.70;;;;;;5062152;28;20037;-46
2023/12/23 03:50:40;;;;;;;129.45;57.38;;;16.80;70.80;;;;;;5058524;28;20090;-42
2023/12/23 03:53:06;;;;;;;127.15;56.33;;;16.70;70.30;;;;;;5058791;28;20507;-41
2023/12/23 03:55:34;;;;;;;126.82;56.58;;;16.70;71.40;;;;;;5060586;28;20048;-43
2023/12/23 03:58:01;;;;;;;128.57;57.15;;;16.70;70.80;;;;;;5059438;28;20087;-40
2023/12/23 04:00:27;;;;;;;127.40;56.63;;;16.70;70.60;;;;;;5052134;28;20152;-43
2023/12/23 04:02:56;;;;;;;127.60;56.50;;;16.70;70.60;;;;;;5058487;28;20067;-41
2023/12/23 04:05:22;;;;;;;127.97;56.70;;;16.70;70.40;;;;;;5063803;28;20077;-40
2023/12/23 04:07:49;;;;;;;128.05;56.72;;;16.70;70.60;;;;;;5050632;28;20176;-40
2023/12/23 04:10:15;;;;;;;127.55;56.60;;;16.70;70.30;;;;;;5059596;28;20091;-39
2023/12/23 04:12:41;;;;;;;128.57;56.40;;;16.70;70.60;;;;;;5058734;28;20099;-41
2023/12/23 04:15:07;;;;;;;126.25;56.30;;;16.70;70.50;;;;;;5058893;28;20124;-40
2023/12/23 04:17:34;;;;;;;129.13;56.42;;;16.70;70.50;;;;;;5054550;28;20048;-40
2023/12/23 04:19:59;;;;;;;128.63;56.47;;;16.60;70.10;;;;;;5059638;28;21475;-40
2023/12/23 04:22:25;;;;;;;124.82;55.60;;;16.60;70.50;;;;;;5060136;28;20510;-42
2023/12/23 04:24:51;;;;;;;127.60;56.78;;;16.70;70.20;;;;;;5059804;28;20554;-40
2023/12/23 04:27:17;;;;;;;125.95;56.03;;;16.60;70.30;;;;;;5057076;28;20033;-41
2023/12/23 04:29:43;;;;;;;127.07;56.90;;;16.60;70.40;;;;;;5054698;28;20063;-40
2023/12/23 04:32:08;;;;;;;127.80;56.58;;;16.60;69.90;;;;;;5061641;28;20148;-41
2023/12/23 04:34:34;;;;;;;126.85;56.45;;;16.60;70.30;;;;;;5061697;28;20041;-40
2023/12/23 04:36:59;;;;;;;126.97;56.17;;;16.60;70.30;;;;;;5057172;28;20345;-41
2023/12/23 04:39:25;;;;;;;127.50;56.80;;;16.60;70.30;;;;;;5058933;28;20033;-42
2023/12/23 04:41:52;;;;;;;128.07;56.08;;;16.60;70.30;;;;;;5056125;28;20620;-39
2023/12/23 04:44:18;;;;;;;126.30;56.25;;;16.60;70.00;;;;;;5059727;28;20106;-41
2023/12/23 04:46:47;;;;;;;128.20;56.97;;;16.60;70.40;;;;;;5060853;28;20052;-41
2023/12/23 04:49:13;;;;;;;127.65;56.22;;;16.60;69.80;;;;;;5052545;28;20040;-41
2023/12/23 04:51:38;;;;;;;126.50;56.38;;;16.60;70.30;;;;;;5056851;28;20045;-40
2023/12/23 04:54:06;;;;;;;128.60;56.60;;;16.60;70.10;;;;;;5055227;28;20050;-44
2023/12/23 04:56:31;;;;;;;126.40;56.25;;;16.50;70.20;;;;;;5062991;28;20056;-40
2023/12/23 04:58:57;;;;;;;127.65;55.90;;;16.60;70.10;;;;;;5050193;28;20573;-42
2023/12/23 05:01:25;;;;;;;127.88;56.50;;;16.60;70.20;;;;;;5059293;28;20037;-41
2023/12/23 05:03:51;;;;;;;128.73;56.75;;;16.50;70.90;;;;;;5058518;28;20033;-43
2023/12/23 05:06:17;;;;;;;125.93;56.33;;;16.50;70.00;;;;;;5058725;28;20094;-43
2023/12/23 05:08:42;;;;;;;127.63;56.50;;;16.50;70.00;;;;;;5057662;28;20043;-42
2023/12/23 05:11:08;;;;;;;128.07;56.67;;;16.50;70.00;;;;;;5060091;28;20106;-41
2023/12/23 05:13:34;;;;;;;125.60;55.90;;;16.50;70.00;;;;;;5063455;28;20422;-43
2023/12/23 05:15:59;;;;;;;129.40;56.95;;;16.50;69.90;;;;;;5060321;28;20569;-42
2023/12/23 05:18:25;;;;;;;125.63;56.13;;;16.50;69.90;;;;;;5059564;28;20059;-40
2023/12/23 05:20:50;;;;;;;129.75;57.00;;;16.50;70.00;;;;;;5054338;28;20886;-44
2023/12/23 05:23:16;;;;;;;128.38;56.17;;;16.50;70.00;;;;;;5060737;28;20041;-40
2023/12/23 05:25:42;;;;;;;127.70;56.50;;;16.50;69.90;;;;;;5060776;28;20036;-42
2023/12/23 05:28:08;;;;;;;127.30;56.40;;;16.50;69.70;;;;;;5056822;28;20396;-42
2023/12/23 05:30:34;;;;;;;128.48;56.55;;;16.40;69.70;;;;;;5053638;28;20396;-42
2023/12/23 05:33:00;;;;;;;125.70;56.22;;;16.50;70.00;;;;;;5053668;28;20040;-42
2023/12/23 05:35:26;;;;;;;127.75;56.15;;;16.40;69.90;;;;;;5063806;28;20037;-43
2023/12/23 05:37:51;;;;;;;128.18;56.92;;;16.40;69.60;;;;;;5055355;28;20565;-41
2023/12/23 05:40:17;;;;;;;129.15;56.50;;;16.40;69.90;;;;;;5056039;28;20569;-40
2023/12/23 05:42:43;;;;;;;126.05;56.47;;;16.40;69.70;;;;;;5057862;28;20490;-43
2023/12/23 05:45:09;;;;;;;127.25;56.15;;;16.40;70.00;;;;;;5056168;28;20504;-41
2023/12/23 05:47:34;;;;;;;126.53;56.63;;;16.40;69.60;;;;;;5055480;28;20044;-40
2023/12/23 05:50:00;;;;;;;128.13;56.50;;;16.40;69.70;;;;;;5058371;28;20053;-41
2023/12/23 05:52:26;;;;;;;125.85;55.78;;;16.40;69.70;;;;;;5057810;28;20120;-43
2023/12/23 05:54:52;;;;;;;126.93;56.45;;;16.40;69.90;;;;;;5055613;28;20041;-43
2023/12/23 05:57:17;;;;;;;127.60;56.47;;;16.40;69.70;;;;;;5052638;28;20044;-44
2023/12/23 05:59:43;;;;;;;126.90;56.42;;;16.40;69.70;;;;;;5053394;28;20077;-41
2023/12/23 06:02:08;;;;;;;127.88;56.63;;;16.40;69.70;;;;;;5057293;28;20381;-43
2023/12/23 06:04:34;;;;;;;127.40;56.67;;;16.40;69.60;;;;;;5057205;28;20578;-41
2023/12/23 06:07:00;;;;;;;127.82;56.63;;;16.30;69.50;;;;;;5051113;28;20565;-41
2023/12/23 06:09:26;;;;;;;126.22;56.15;;;16.30;69.60;;;;;;5056722;28;20046;-45
2023/12/23 06:11:51;;;;;;;126.88;56.17;;;16.40;69.50;;;;;;5057967;28;20556;-40
2023/12/23 06:14:17;;;;;;;126.07;55.65;;;16.30;69.50;;;;;;5060489;28;20045;-40
2023/12/23 06:16:43;;;;;;;128.02;56.58;;;16.30;69.50;;;;;;5056581;28;20048;-40
2023/12/23 06:19:09;;;;;;;125.40;55.97;;;16.40;69.60;;;;;;5059504;28;20614;-41
2023/12/23 06:21:34;;;;;;;128.35;56.90;;;16.30;69.60;;;;;;5057763;28;20569;-43
2023/12/23 06:24:00;;;;;;;126.97;56.83;;;16.30;69.60;;;;;;5058474;28;20398;-44
2023/12/23 06:26:26;;;;;;;127.45;56.03;;;16.40;69.50;;;;;;5057424;28;20048;-43
2023/12/23 06:28:51;;;;;;;127.22;56.20;;;16.30;69.40;;;;;;5062703;28;20124;-42
2023/12/23 06:31:17;;;;;;;127.15;56.15;;;16.30;69.50;;;;;;5055171;28;20117;-40
2023/12/23 06:33:43;;;;;;;127.20;55.60;;;16.30;69.40;;;;;;5058070;28;20056;-40
2023/12/23 06:36:09;;;;;;;127.63;56.17;;;16.30;69.60;;;;;;5056331;28;20075;-40
2023/12/23 06:38:35;;;;;;;127.07;56.17;;;16.30;69.60;;;;;;5053975;28;20049;-40
2023/12/23 06:41:03;;;;;;;127.43;56.58;;;16.30;69.50;;;;;;5053553;28;20041;-41
2023/12/23 06:43:29;;;;;;;129.05;56.25;;;16.30;69.40;;;;;;5055566;28;20042;-41
2023/12/23 06:45:55;;;;;;;126.38;56.30;;;16.30;69.50;;;;;;5057436;28;21622;-40
2023/12/23 06:48:20;;;;;;;125.50;56.38;;;16.30;69.60;;;;;;5051284;28;20145;-46
2023/12/23 06:50:46;;;;;;;125.53;55.55;;;16.30;69.60;;;;;;5055147;28;20100;-45
2023/12/23 06:53:12;;;;;;;125.80;56.22;;;16.30;69.30;;;;;;5058071;28;20086;-41
2023/12/23 06:55:38;;;;;;;127.47;56.08;;;16.20;69.30;;;;;;5055562;28;20095;-40
2023/12/23 06:58:03;;;;;;;128.63;56.72;;;16.30;69.60;;;;;;5054940;28;20041;-44
2023/12/23 07:00:29;;;;;;;128.73;56.05;;;16.20;69.60;;;;;;5054354;28;20106;-43
2023/12/23 07:02:54;;;;;;;128.95;56.97;;;16.30;69.60;;;;;;5057654;28;20033;-40
2023/12/23 07:05:20;;;;;;;126.40;56.63;;;16.30;69.70;;;;;;5058803;28;20044;-40
2023/12/23 07:07:46;;;;;;;128.77;56.42;;;16.30;69.50;;;;;;5051903;28;20034;-41
2023/12/23 07:10:13;;;;;;;130.05;56.83;;;16.20;69.50;;;;;;5051897;28;20049;-43
2023/12/23 07:12:40;;;;;;;126.75;55.92;;;16.30;69.60;;;;;;5060222;28;20121;-45
2023/12/23 07:15:06;;;;;;;128.38;56.00;;;16.20;69.60;;;;;;5059510;28;20044;-43
2023/12/23 07:17:32;;;;;;;128.60;55.85;;;16.20;69.80;;;;;;5057360;28;20048;-41
2023/12/23 07:19:58;;;;;;;127.28;56.10;;;16.20;69.90;;;;;;5059802;28;20040;-41
2023/12/23 07:22:24;;;;;;;125.20;55.92;;;16.20;70.00;;;;;;5058911;28;20045;-40
2023/12/23 07:24:49;;;;;;;127.32;56.67;;;16.20;70.00;;;;;;5062133;28;20868;-41
2023/12/23 07:27:15;;;;;;;129.73;57.03;;;16.20;69.90;;;;;;5053079;28;20052;-41
2023/12/23 07:29:41;;;;;;;126.95;56.13;;;16.20;70.00;;;;;;5055307;28;20049;-42
2023/12/23 07:32:07;;;;;;;125.55;56.38;;;16.20;70.00;;;;;;5049664;28;20079;-40
2023/12/23 07:34:33;;;;;;;126.82;55.90;;;16.20;70.20;;;;;;5062209;28;20055;-42
2023/12/23 07:36:59;;;;;;;132.85;56.83;;;16.20;70.10;;;;;;5049694;28;20117;-41
2023/12/23 07:39:24;;;;;;;136.02;57.53;;;16.20;70.10;;;;;;5054556;28;20115;-42
2023/12/23 07:41:50;;;;;;;130.60;57.20;;;16.20;70.20;;;;;;5060746;28;20037;-42
2023/12/23 07:44:16;;;;;;;135.65;57.40;;;16.20;70.20;;;;;;5062764;28;20907;-41
2023/12/23 07:46:42;;;;;;;140.02;58.22;;;16.20;70.20;;;;;;5057136;28;20505;-40
2023/12/23 07:49:07;;;;;;;134.18;57.25;;;16.20;70.10;;;;;;5060473;28;20036;-43
2023/12/23 07:51:33;;;;;;;132.32;58.03;;;16.20;69.90;;;;;;5061351;28;20538;-41
2023/12/23 07:53:59;;;;;;;130.25;56.83;;;16.10;69.70;;;;;;5060718;28;20432;-39
2023/12/23 07:56:25;;;;;;;138.13;58.42;;;16.10;69.80;;;;;;5058303;28;20478;-41
2023/12/23 07:58:52;;;;;;;135.98;57.45;;;16.10;69.80;;;;;;5050140;28;20044;-41
2023/12/23 08:01:18;;;;;;;132.57;57.75;;;16.10;69.70;;;;;;5052681;28;20616;-41
2023/12/23 08:03:43;;;;;;;130.45;57.10;;;16.10;70.00;;;;;;5050607;28;20033;-42
2023/12/23 08:06:09;;;;;;;128.13;57.17;;;16.20;69.80;;;;;;5060152;28;20041;-41
2023/12/23 08:08:34;;;;;;;131.77;57.95;;;16.10;70.00;;;;;;5059648;28;20033;-39
2023/12/23 08:11:00;;;;;;;135.38;58.15;;;16.10;70.10;;;;;;5051033;28;20037;-42
2023/12/23 08:13:28;;;;;;;129.85;57.60;;;16.20;70.30;;;;;;5039068;28;20083;-39
2023/12/23 08:15:53;;;;;;;131.02;57.72;;;16.20;70.60;;;;;;5043309;28;20090;-39
2023/12/23 08:18:20;;;;;;;132.68;58.00;;;16.20;71.90;;;;;;5053279;28;20491;-38
2023/12/23 08:20:45;;;;;;;130.38;57.33;;;16.30;70.50;;;;;;5056483;28;20064;-38
2023/12/23 08:23:11;;;;;;;132.40;57.17;;;16.40;70.50;;;;;;5057619;28;20120;-39
2023/12/23 08:25:37;;;;;;;133.98;58.38;;;16.50;70.20;;;;;;5059263;28;20052;-38
2023/12/23 08:28:03;;;;;;;132.18;57.33;;;16.60;70.00;;;;;;5050644;28;20042;-38
2023/12/23 08:30:29;;;;;;;130.75;57.30;;;16.60;69.80;;;;;;5050652;28;20048;-38
2023/12/23 08:32:55;;;;;;;131.80;57.30;;;16.60;69.80;;;;;;5056247;28;20029;-38
2023/12/23 08:35:21;;;;;;;132.10;57.92;;;16.60;69.90;;;;;;5046159;28;20119;-37
2023/12/23 08:37:46;;;;;;;133.23;57.53;;;16.60;70.40;;;;;;5050286;28;20048;-39
2023/12/23 08:40:12;;;;;;;130.85;57.22;;;16.70;70.70;;;;;;5045407;28;20033;-39
2023/12/23 08:42:38;;;;;;;132.25;58.22;;;16.60;70.70;;;;;;5050136;28;20045;-38
2023/12/23 08:45:04;;;;;;;132.20;57.33;;;16.70;70.80;;;;;;5049920;28;20052;-38
2023/12/23 08:47:30;;;;;;;131.23;57.63;;;16.70;70.90;;;;;;5053377;28;20620;-38
2023/12/23 08:49:55;;;;;;;135.35;57.25;;;16.70;70.90;;;;;;5049674;28;20113;-39
2023/12/23 08:52:21;;;;;;;132.48;57.85;;;16.70;70.60;;;;;;5051311;28;20098;-38
2023/12/23 08:54:47;;;;;;;136.32;57.20;;;16.70;70.70;;;;;;5051716;28;20049;-39
2023/12/23 08:57:12;;;;;;;130.20;57.10;;;16.70;70.80;;;;;;5052087;28;20594;-38
2023/12/23 08:59:38;;;;;;;133.65;58.47;;;16.70;70.80;;;;;;5046397;28;20060;-38
2023/12/23 09:02:05;;;;;;;131.73;57.92;;;16.70;70.70;;;;;;5051479;28;20033;-38
2023/12/23 09:04:30;;;;;;;132.63;57.95;;;16.70;70.80;;;;;;5043663;28;20851;-38
2023/12/23 09:06:57;;;;;;;134.30;57.88;;;16.80;71.00;;;;;;5047835;28;20064;-38
2023/12/23 09:09:24;;;;;;;133.77;58.53;;;16.80;71.50;;;;;;5037558;28;20038;-38
2023/12/23 09:11:49;;;;;;;137.30;58.75;;;16.80;71.60;;;;;;5047323;28;20041;-39
2023/12/23 09:14:15;;;;;;;140.65;58.67;;;16.80;72.50;;;;;;5055718;28;20139;-39
2023/12/23 09:16:41;;;;;;;132.05;57.72;;;16.80;72.80;;;;;;5045412;28;20045;-39
2023/12/23 09:19:07;;;;;;;134.35;57.63;;;16.80;73.30;;;;;;5058187;28;20554;-38
2023/12/23 09:21:33;;;;;;;132.43;57.72;;;16.80;73.60;;;;;;5049636;28;20487;-38
2023/12/23 09:23:58;;;;;;;134.55;58.33;;;16.80;73.60;;;;;;5044056;28;20530;-38
2023/12/23 09:26:24;;;;;;;132.70;58.00;;;16.80;73.60;;;;;;5054434;28;20073;-38
2023/12/23 09:28:53;;;;;;;133.60;58.15;;;16.80;73.10;;;;;;5047532;28;20059;-38
2023/12/23 09:31:18;;;;;;;136.88;57.80;;;16.80;73.10;;;;;;5054154;28;20024;-39
2023/12/23 09:33:44;;;;;;;130.55;58.33;;;16.80;73.40;;;;;;5050339;28;20041;-39
2023/12/23 09:36:10;;;;;;;134.05;58.13;;;16.80;73.60;;;;;;5060491;28;20040;-39
2023/12/23 09:38:36;;;;;;;138.20;57.97;;;16.80;73.70;;;;;;5055549;28;20545;-41
2023/12/23 09:41:02;;;;;;;137.73;58.03;;;16.80;73.40;;;;;;5056387;28;20053;-38
2023/12/23 09:43:28;;;;;;;133.15;57.70;;;16.80;73.70;;;;;;5041483;28;20049;-41
2023/12/23 09:45:56;;;;;;;135.95;58.10;;;16.80;72.80;;;;;;5050356;28;20595;-41
2023/12/23 09:48:22;;;;;;;137.52;57.97;;;16.80;73.40;;;;;;5059991;28;20116;-37
2023/12/23 09:50:49;;;;;;;135.55;58.35;;;16.80;73.10;;;;;;5056137;28;20106;-38
2023/12/23 09:53:17;;;;;;;133.55;57.92;;;16.90;73.00;;;;;;5055538;28;20064;-39
2023/12/23 09:55:43;;;;;;;135.50;58.00;;;16.80;72.80;;;;;;5048326;28;20123;-38
2023/12/23 09:58:09;;;;;;;134.13;57.63;;;16.90;72.80;;;;;;5051649;28;20037;-40
2023/12/23 10:00:35;;;;;;;130.60;57.65;;;16.80;72.60;;;;;;5050510;28;20498;-38
2023/12/23 10:03:01;;;;;;;135.32;58.20;;;16.90;72.50;;;;;;5046309;28;20041;-39
2023/12/23 10:05:27;;;;;;;135.93;58.25;;;16.90;72.50;;;;;;5052415;28;20048;-38
2023/12/23 10:07:57;;;;;;;135.13;58.20;;;16.80;72.10;;;;;;5059126;28;20029;-39
2023/12/23 10:10:23;;;;;;;135.85;58.38;;;16.80;72.30;;;;;;5051171;28;20052;-38
2023/12/23 10:12:49;;;;;;;135.75;57.60;;;16.90;72.20;;;;;;5057131;28;21495;-39
2023/12/23 10:15:15;;;;;;;133.65;57.97;;;16.80;71.90;;;;;;5057213;28;20042;-38
2023/12/23 10:17:41;;;;;;;129.27;57.35;;;16.80;71.70;;;;;;5057648;28;20033;-38
2023/12/23 10:20:10;;;;;;;135.32;57.75;;;16.80;71.70;;;;;;5058570;28;20124;-38
2023/12/23 10:22:36;;;;;;;134.20;57.78;;;16.80;71.80;;;;;;5059025;28;20040;-38
2023/12/23 10:25:01;;;;;;;132.80;57.30;;;16.80;71.40;;;;;;5057170;28;20077;-38
2023/12/23 10:27:30;;;;;;;131.95;57.60;;;16.80;71.40;;;;;;5059445;28;20052;-38
2023/12/23 10:29:58;;;;;;;134.13;57.53;;;16.80;71.10;;;;;;5056701;28;20511;-38
2023/12/23 10:32:25;;;;;;;129.05;57.28;;;16.80;71.00;;;;;;5054585;28;20052;-38
2023/12/23 10:35:00;;;;;;;131.95;57.33;;;16.80;71.00;;;;;;5056556;28;20051;-39
2023/12/23 10:37:26;;;;;;;129.88;57.13;;;16.80;70.90;;;;;;5056808;28;20112;-38
2023/12/23 10:40:13;;;;;;;130.80;57.10;;;16.80;70.60;;;;;;5057203;28;20033;-38
2023/12/23 10:42:42;;;;;;;135.35;57.13;;;16.80;70.60;;;;;;5059241;28;20289;-38
2023/12/23 10:45:08;;;;;;;131.98;57.10;;;16.80;70.50;;;;;;5056446;28;20057;-39
2023/12/23 10:47:35;;;;;;;131.25;56.60;;;16.80;70.30;;;;;;5058582;28;20095;-38
2023/12/23 10:50:01;;;;;;;127.32;56.55;;;16.80;70.00;;;;;;5061210;28;20032;-38
2023/12/23 10:52:28;;;;;;;128.70;57.13;;;16.80;70.00;;;;;;5056625;28;20037;-38
2023/12/23 10:54:54;;;;;;;127.28;56.45;;;16.80;70.30;;;;;;5056430;28;20053;-38
2023/12/23 10:57:24;;;;;;;132.20;57.53;;;16.80;69.60;;;;;;5057047;28;20030;-38
2023/12/23 10:59:50;;;;;;;126.57;56.47;;;16.80;69.70;;;;;;5046084;28;20049;-40
2023/12/23 11:02:19;;;;;;;129.40;56.97;;;16.80;69.60;;;;;;5053295;28;20057;-39
2023/12/23 11:04:49;;;;;;;131.32;57.38;;;16.80;69.50;;;;;;5052243;28;20163;-37
2023/12/23 11:07:19;;;;;;;132.75;56.88;;;16.90;69.80;;;;;;5054199;28;20033;-39
2023/12/23 11:09:47;;;;;;;129.63;56.97;;;16.90;70.30;;;;;;5046406;28;20038;-39
2023/12/23 11:12:14;;;;;;;129.68;56.95;;;16.90;70.00;;;;;;5050180;28;20041;-39
2023/12/23 11:14:40;;;;;;;131.32;56.92;;;16.90;69.80;;;;;;5050353;28;20045;-41
2023/12/23 11:17:25;;;;;;;127.93;57.00;;;16.90;69.80;;;;;;5056177;28;20056;-42
2023/12/23 11:19:54;;;;;;;129.73;56.35;;;16.90;69.70;;;;;;5053823;28;20043;-44
2023/12/23 11:22:23;;;;;;;130.02;56.78;;;16.80;69.40;;;;;;5054979;28;20041;-40
2023/12/23 11:24:49;;;;;;;131.60;57.42;;;16.80;69.30;;;;;;5050498;28;20054;-41
2023/12/23 11:27:34;;;;;;;129.70;56.72;;;16.80;69.10;;;;;;5056158;28;21761;-43
2023/12/23 11:30:09;;;;;;;128.68;57.33;;;16.90;68.90;;;;;;5060215;28;20044;-45
2023/12/23 11:32:39;;;;;;;130.63;56.88;;;16.90;68.90;;;;;;5050724;28;20086;-46
2023/12/23 11:35:09;;;;;;;133.50;57.60;;;16.80;68.80;;;;;;5057707;28;20050;-43
2023/12/23 11:37:53;;;;;;;132.55;58.00;;;16.90;68.90;;;;;;5048873;28;20073;-44
2023/12/23 11:40:20;;;;;;;134.48;57.17;;;16.90;69.80;;;;;;5054198;28;20040;-41
2023/12/23 11:42:47;;;;;;;139.15;57.60;;;16.80;70.70;;;;;;5055456;28;20061;-40
2023/12/23 11:45:13;;;;;;;141.75;63.10;;;16.80;70.90;;;;;;5053891;28;20091;-39
2023/12/23 11:47:39;;;;;;;190.20;108.65;;;16.90;70.90;;;;;;5060202;28;20033;-43
2023/12/23 11:50:09;;;;;;;180.85;96.75;;;16.90;70.90;;;;;;5055134;28;20037;-40
2023/12/23 11:52:35;;;;;;;168.88;92.57;;;16.90;70.90;;;;;;5052497;28;20045;-42
2023/12/23 11:55:04;;;;;;;163.40;86.35;;;16.90;70.70;;;;;;5058773;28;20041;-42
2023/12/23 11:57:31;;;;;;;159.20;82.32;;;16.90;70.50;;;;;;5056133;28;20044;-42
2023/12/23 11:59:59;;;;;;;163.05;87.93;;;16.80;70.40;;;;;;5055313;28;20037;-40
2023/12/23 12:02:27;;;;;;;165.18;87.30;;;16.80;70.60;;;;;;5055747;28;20451;-43
2023/12/23 12:04:53;;;;;;;163.32;84.15;;;16.80;71.00;;;;;;5051762;28;20052;-43
2023/12/23 12:07:20;;;;;;;188.52;92.03;;;16.70;71.20;;;;;;5056067;28;20098;-43
2023/12/23 12:09:49;;;;;;;176.70;93.47;;;16.70;71.70;;;;;;5063723;28;20095;-43
2023/12/23 12:12:14;;;;;;;175.93;89.45;;;16.70;71.90;;;;;;5059240;28;20146;-40
2023/12/23 12:14:40;;;;;;;168.80;83.25;;;16.80;71.40;;;;;;5052011;28;20947;-41